sensor_id;sensor_type;location;lat;lon;timestamp;temperature;humidity
23671;DHT22;12012;51.998;7.614;2024-02-21T00:00:02;8.60;1.00
23671;DHT22;12012;51.998;7.614;2024-02-21T00:02:27;8.70;1.00
23671;DHT22;12012;51.998;7.614;2024-02-21T00:04:53;8.60;1.00
23671;DHT22;12012;51.998;7.614;2024-02-21T00:07:18;8.70;1.00
23671;DHT22;12012;51.998;7.614;2024-02-21T00:09:44;8.70;1.00
23671;DHT22;12012;51.998;7.614;2024-02-21T00:12:10;8.60;1.00
23671;DHT22;12012;51.998;7.614;2024-02-21T00:14:36;8.60;99.90
23671;DHT22;12012;51.998;7.614;2024-02-21T00:17:01;8.60;99.90
23671;DHT22;12012;51.998;7.614;2024-02-21T00:19:27;8.60;99.90
23671;DHT22;12012;51.998;7.614;2024-02-21T00:21:52;9.10;99.90
23671;DHT22;12012;51.998;7.614;2024-02-21T00:24:18;8.60;99.90
23671;DHT22;12012;51.998;7.614;2024-02-21T00:26:43;8.60;1.00
23671;DHT22;12012;51.998;7.614;2024-02-21T00:29:09;8.60;1.00
23671;DHT22;12012;51.998;7.614;2024-02-21T00:31:34;8.50;1.00
23671;DHT22;12012;51.998;7.614;2024-02-21T00:34:00;8.50;1.00
23671;DHT22;12012;51.998;7.614;2024-02-21T00:36:25;8.50;1.00
23671;DHT22;12012;51.998;7.614;2024-02-21T00:38:51;8.50;1.00
23671;DHT22;12012;51.998;7.614;2024-02-21T00:41:16;8.50;1.00
23671;DHT22;12012;51.998;7.614;2024-02-21T00:43:42;8.60;1.00
23671;DHT22;12012;51.998;7.614;2024-02-21T00:46:08;8.50;1.00
23671;DHT22;12012;51.998;7.614;2024-02-21T00:48:33;8.50;1.00
23671;DHT22;12012;51.998;7.614;2024-02-21T00:50:59;8.60;1.00
23671;DHT22;12012;51.998;7.614;2024-02-21T00:53:25;8.60;1.00
23671;DHT22;12012;51.998;7.614;2024-02-21T00:55:50;8.60;1.00
23671;DHT22;12012;51.998;7.614;2024-02-21T00:58:16;8.60;1.00
23671;DHT22;12012;51.998;7.614;2024-02-21T01:00:41;8.60;1.00
23671;DHT22;12012;51.998;7.614;2024-02-21T01:03:07;8.60;1.00
23671;DHT22;12012;51.998;7.614;2024-02-21T01:05:32;8.70;99.90
23671;DHT22;12012;51.998;7.614;2024-02-21T01:07:58;8.70;99.90
23671;DHT22;12012;51.998;7.614;2024-02-21T01:10:24;8.70;99.90
23671;DHT22;12012;51.998;7.614;2024-02-21T01:12:49;8.70;99.90
23671;DHT22;12012;51.998;7.614;2024-02-21T01:15:15;8.70;99.90
23671;DHT22;12012;51.998;7.614;2024-02-21T01:17:40;8.70;99.90
23671;DHT22;12012;51.998;7.614;2024-02-21T01:20:06;8.70;99.90
23671;DHT22;12012;51.998;7.614;2024-02-21T01:22:32;8.70;99.90
23671;DHT22;12012;51.998;7.614;2024-02-21T01:24:58;8.80;99.90
23671;DHT22;12012;51.998;7.614;2024-02-21T01:27:23;8.80;99.90
23671;DHT22;12012;51.998;7.614;2024-02-21T01:29:49;8.80;99.90
23671;DHT22;12012;51.998;7.614;2024-02-21T01:32:15;8.70;99.90
23671;DHT22;12012;51.998;7.614;2024-02-21T01:34:41;8.80;99.90
23671;DHT22;12012;51.998;7.614;2024-02-21T01:37:07;8.80;99.90
23671;DHT22;12012;51.998;7.614;2024-02-21T01:39:33;8.80;99.90
23671;DHT22;12012;51.998;7.614;2024-02-21T01:41:59;8.80;99.90
23671;DHT22;12012;51.998;7.614;2024-02-21T01:44:24;8.80;99.00
23671;DHT22;12012;51.998;7.614;2024-02-21T01:46:50;8.80;96.60
23671;DHT22;12012;51.998;7.614;2024-02-21T01:49:17;8.80;67.10
23671;DHT22;12012;51.998;7.614;2024-02-21T01:51:43;8.80;60.50
23671;DHT22;12012;51.998;7.614;2024-02-21T01:54:10;8.80;30.90
23671;DHT22;12012;51.998;7.614;2024-02-21T01:56:36;8.80;14.30
23671;DHT22;12012;51.998;7.614;2024-02-21T01:59:02;8.80;1.00
23671;DHT22;12012;51.998;7.614;2024-02-21T02:01:29;8.80;20.80
23671;DHT22;12012;51.998;7.614;2024-02-21T02:03:55;8.80;1.00
23671;DHT22;12012;51.998;7.614;2024-02-21T02:06:20;8.80;1.00
23671;DHT22;12012;51.998;7.614;2024-02-21T02:08:46;8.80;1.00
23671;DHT22;12012;51.998;7.614;2024-02-21T02:11:14;8.80;1.00
23671;DHT22;12012;51.998;7.614;2024-02-21T02:13:39;8.80;1.00
23671;DHT22;12012;51.998;7.614;2024-02-21T02:16:05;8.80;1.00
23671;DHT22;12012;51.998;7.614;2024-02-21T02:18:31;8.80;1.00
23671;DHT22;12012;51.998;7.614;2024-02-21T02:20:56;8.80;1.00
23671;DHT22;12012;51.998;7.614;2024-02-21T02:23:30;8.80;1.00
23671;DHT22;12012;51.998;7.614;2024-02-21T02:25:56;8.80;1.00
23671;DHT22;12012;51.998;7.614;2024-02-21T02:28:22;8.80;1.00
23671;DHT22;12012;51.998;7.614;2024-02-21T02:30:48;8.70;1.00
23671;DHT22;12012;51.998;7.614;2024-02-21T02:33:14;8.70;1.00
23671;DHT22;12012;51.998;7.614;2024-02-21T02:35:40;8.70;1.00
23671;DHT22;12012;51.998;7.614;2024-02-21T02:38:05;8.70;1.00
23671;DHT22;12012;51.998;7.614;2024-02-21T02:40:35;8.70;2.00
23671;DHT22;12012;51.998;7.614;2024-02-21T02:43:01;8.70;1.00
23671;DHT22;12012;51.998;7.614;2024-02-21T02:45:26;8.70;1.00
23671;DHT22;12012;51.998;7.614;2024-02-21T02:47:53;8.70;5.30
23671;DHT22;12012;51.998;7.614;2024-02-21T02:50:25;8.70;1.00
23671;DHT22;12012;51.998;7.614;2024-02-21T02:52:52;8.70;1.00
23671;DHT22;12012;51.998;7.614;2024-02-21T02:55:18;8.80;1.00
23671;DHT22;12012;51.998;7.614;2024-02-21T02:57:43;8.70;1.00
23671;DHT22;12012;51.998;7.614;2024-02-21T03:00:13;8.80;1.00
23671;DHT22;12012;51.998;7.614;2024-02-21T03:02:41;8.80;99.90
23671;DHT22;12012;51.998;7.614;2024-02-21T03:05:18;8.80;99.90
23671;DHT22;12012;51.998;7.614;2024-02-21T03:07:47;8.80;99.90
23671;DHT22;12012;51.998;7.614;2024-02-21T03:10:14;8.80;99.90
23671;DHT22;12012;51.998;7.614;2024-02-21T03:12:41;8.80;99.90
23671;DHT22;12012;51.998;7.614;2024-02-21T03:15:08;8.90;99.90
23671;DHT22;12012;51.998;7.614;2024-02-21T03:17:34;8.90;99.90
23671;DHT22;12012;51.998;7.614;2024-02-21T03:20:00;8.90;99.90
23671;DHT22;12012;51.998;7.614;2024-02-21T03:22:26;8.90;99.90
23671;DHT22;12012;51.998;7.614;2024-02-21T03:24:51;8.90;61.30
23671;DHT22;12012;51.998;7.614;2024-02-21T03:27:17;8.90;52.30
23671;DHT22;12012;51.998;7.614;2024-02-21T03:29:43;8.90;71.80
23671;DHT22;12012;51.998;7.614;2024-02-21T03:32:09;8.90;43.10
23671;DHT22;12012;51.998;7.614;2024-02-21T03:34:35;8.90;28.00
23671;DHT22;12012;51.998;7.614;2024-02-21T03:37:00;8.90;29.00
23671;DHT22;12012;51.998;7.614;2024-02-21T03:39:26;8.90;1.00
23671;DHT22;12012;51.998;7.614;2024-02-21T03:41:52;8.90;1.00
23671;DHT22;12012;51.998;7.614;2024-02-21T03:44:17;8.90;1.00
23671;DHT22;12012;51.998;7.614;2024-02-21T03:46:43;8.90;1.00
23671;DHT22;12012;51.998;7.614;2024-02-21T03:49:09;8.90;1.00
23671;DHT22;12012;51.998;7.614;2024-02-21T03:51:34;8.90;1.00
23671;DHT22;12012;51.998;7.614;2024-02-21T03:54:00;7.40;1.00
23671;DHT22;12012;51.998;7.614;2024-02-21T03:56:26;7.70;1.00
23671;DHT22;12012;51.998;7.614;2024-02-21T03:58:51;8.90;1.00
23671;DHT22;12012;51.998;7.614;2024-02-21T04:01:17;8.90;1.00
23671;DHT22;12012;51.998;7.614;2024-02-21T04:03:44;8.90;1.00
23671;DHT22;12012;51.998;7.614;2024-02-21T04:06:09;8.90;1.00
23671;DHT22;12012;51.998;7.614;2024-02-21T04:08:35;8.90;1.00
23671;DHT22;12012;51.998;7.614;2024-02-21T04:11:00;8.90;1.00
23671;DHT22;12012;51.998;7.614;2024-02-21T04:13:26;8.90;1.00
23671;DHT22;12012;51.998;7.614;2024-02-21T04:15:52;8.90;1.00
23671;DHT22;12012;51.998;7.614;2024-02-21T04:18:17;8.90;1.00
23671;DHT22;12012;51.998;7.614;2024-02-21T04:20:43;8.90;99.90
23671;DHT22;12012;51.998;7.614;2024-02-21T04:23:09;8.90;1.00
23671;DHT22;12012;51.998;7.614;2024-02-21T04:25:34;8.90;1.00
23671;DHT22;12012;51.998;7.614;2024-02-21T04:28:00;8.90;1.00
23671;DHT22;12012;51.998;7.614;2024-02-21T04:30:26;8.90;1.00
23671;DHT22;12012;51.998;7.614;2024-02-21T04:32:51;8.90;1.00
23671;DHT22;12012;51.998;7.614;2024-02-21T04:35:17;8.90;1.00
23671;DHT22;12012;51.998;7.614;2024-02-21T04:37:42;8.90;1.00
23671;DHT22;12012;51.998;7.614;2024-02-21T04:40:08;8.90;1.00
23671;DHT22;12012;51.998;7.614;2024-02-21T04:42:34;8.80;1.00
23671;DHT22;12012;51.998;7.614;2024-02-21T04:45:00;8.90;1.00
23671;DHT22;12012;51.998;7.614;2024-02-21T04:47:25;8.90;1.00
23671;DHT22;12012;51.998;7.614;2024-02-21T04:49:51;8.90;1.00
23671;DHT22;12012;51.998;7.614;2024-02-21T04:52:17;8.80;1.00
23671;DHT22;12012;51.998;7.614;2024-02-21T04:54:43;8.80;1.00
23671;DHT22;12012;51.998;7.614;2024-02-21T04:57:08;8.80;1.00
23671;DHT22;12012;51.998;7.614;2024-02-21T04:59:35;8.70;28.40
23671;DHT22;12012;51.998;7.614;2024-02-21T05:02:01;8.80;90.50
23671;DHT22;12012;51.998;7.614;2024-02-21T05:04:27;8.80;99.90
23671;DHT22;12012;51.998;7.614;2024-02-21T05:06:52;8.70;99.90
23671;DHT22;12012;51.998;7.614;2024-02-21T05:09:18;8.70;99.90
23671;DHT22;12012;51.998;7.614;2024-02-21T05:11:43;8.70;99.90
23671;DHT22;12012;51.998;7.614;2024-02-21T05:14:09;8.70;99.90
23671;DHT22;12012;51.998;7.614;2024-02-21T05:16:34;8.70;99.90
23671;DHT22;12012;51.998;7.614;2024-02-21T05:19:00;8.70;99.90
23671;DHT22;12012;51.998;7.614;2024-02-21T05:21:26;8.70;99.90
23671;DHT22;12012;51.998;7.614;2024-02-21T05:23:53;8.70;99.90
23671;DHT22;12012;51.998;7.614;2024-02-21T05:26:26;8.70;99.90
23671;DHT22;12012;51.998;7.614;2024-02-21T05:28:52;8.70;99.90
23671;DHT22;12012;51.998;7.614;2024-02-21T05:31:18;8.70;99.90
23671;DHT22;12012;51.998;7.614;2024-02-21T05:33:44;8.70;99.90
23671;DHT22;12012;51.998;7.614;2024-02-21T05:36:10;8.70;99.90
23671;DHT22;12012;51.998;7.614;2024-02-21T05:38:36;8.70;99.90
23671;DHT22;12012;51.998;7.614;2024-02-21T05:41:02;8.70;96.00
23671;DHT22;12012;51.998;7.614;2024-02-21T05:43:28;8.30;75.80
23671;DHT22;12012;51.998;7.614;2024-02-21T05:45:53;8.70;91.70
23671;DHT22;12012;51.998;7.614;2024-02-21T05:48:19;8.70;87.40
23671;DHT22;12012;51.998;7.614;2024-02-21T05:50:44;8.70;87.60
23671;DHT22;12012;51.998;7.614;2024-02-21T05:53:10;8.70;99.30
23671;DHT22;12012;51.998;7.614;2024-02-21T05:55:36;8.60;99.90
23671;DHT22;12012;51.998;7.614;2024-02-21T05:58:02;8.60;99.90
23671;DHT22;12012;51.998;7.614;2024-02-21T06:00:28;8.60;99.90
23671;DHT22;12012;51.998;7.614;2024-02-21T06:02:53;8.60;99.90
23671;DHT22;12012;51.998;7.614;2024-02-21T06:05:19;8.60;99.90
23671;DHT22;12012;51.998;7.614;2024-02-21T06:07:45;8.70;99.90
23671;DHT22;12012;51.998;7.614;2024-02-21T06:10:10;8.70;99.90
23671;DHT22;12012;51.998;7.614;2024-02-21T06:12:36;8.70;99.90
23671;DHT22;12012;51.998;7.614;2024-02-21T06:15:01;8.70;99.90
23671;DHT22;12012;51.998;7.614;2024-02-21T06:17:27;8.70;99.90
23671;DHT22;12012;51.998;7.614;2024-02-21T06:19:52;8.70;93.60
23671;DHT22;12012;51.998;7.614;2024-02-21T06:22:18;8.70;45.40
23671;DHT22;12012;51.998;7.614;2024-02-21T06:24:43;8.70;33.90
23671;DHT22;12012;51.998;7.614;2024-02-21T06:27:09;8.70;17.90
23671;DHT22;12012;51.998;7.614;2024-02-21T06:29:36;8.70;1.00
23671;DHT22;12012;51.998;7.614;2024-02-21T06:32:02;8.80;1.00
23671;DHT22;12012;51.998;7.614;2024-02-21T06:34:28;8.70;1.00
23671;DHT22;12012;51.998;7.614;2024-02-21T06:36:53;8.70;1.00
23671;DHT22;12012;51.998;7.614;2024-02-21T06:39:19;8.70;1.00
23671;DHT22;12012;51.998;7.614;2024-02-21T06:41:45;8.80;1.00
23671;DHT22;12012;51.998;7.614;2024-02-21T06:44:10;8.80;1.00
23671;DHT22;12012;51.998;7.614;2024-02-21T06:46:36;8.80;1.00
23671;DHT22;12012;51.998;7.614;2024-02-21T06:49:02;8.80;1.00
23671;DHT22;12012;51.998;7.614;2024-02-21T06:51:29;8.80;1.00
23671;DHT22;12012;51.998;7.614;2024-02-21T06:53:55;8.80;1.00
23671;DHT22;12012;51.998;7.614;2024-02-21T06:56:22;8.80;1.00
23671;DHT22;12012;51.998;7.614;2024-02-21T06:58:52;8.80;1.00
23671;DHT22;12012;51.998;7.614;2024-02-21T07:01:17;8.80;1.00
23671;DHT22;12012;51.998;7.614;2024-02-21T07:03:43;8.80;99.90
23671;DHT22;12012;51.998;7.614;2024-02-21T07:06:08;8.80;99.90
23671;DHT22;12012;51.998;7.614;2024-02-21T07:08:34;8.90;1.00
23671;DHT22;12012;51.998;7.614;2024-02-21T07:11:00;8.90;99.90
23671;DHT22;12012;51.998;7.614;2024-02-21T07:13:25;8.90;99.90
23671;DHT22;12012;51.998;7.614;2024-02-21T07:15:51;8.90;99.90
23671;DHT22;12012;51.998;7.614;2024-02-21T07:18:16;8.90;99.90
23671;DHT22;12012;51.998;7.614;2024-02-21T07:20:42;8.90;99.90
23671;DHT22;12012;51.998;7.614;2024-02-21T07:23:08;9.00;99.90
23671;DHT22;12012;51.998;7.614;2024-02-21T07:25:34;9.00;99.90
23671;DHT22;12012;51.998;7.614;2024-02-21T07:27:59;9.00;99.90
23671;DHT22;12012;51.998;7.614;2024-02-21T07:30:25;9.00;99.90
23671;DHT22;12012;51.998;7.614;2024-02-21T07:32:51;9.00;99.90
23671;DHT22;12012;51.998;7.614;2024-02-21T07:35:17;9.00;99.90
23671;DHT22;12012;51.998;7.614;2024-02-21T07:37:43;9.00;90.90
23671;DHT22;12012;51.998;7.614;2024-02-21T07:40:16;9.10;99.90
23671;DHT22;12012;51.998;7.614;2024-02-21T07:42:42;9.10;29.20
23671;DHT22;12012;51.998;7.614;2024-02-21T07:45:08;9.10;76.70
23671;DHT22;12012;51.998;7.614;2024-02-21T07:47:34;9.10;1.00
23671;DHT22;12012;51.998;7.614;2024-02-21T07:50:00;9.10;1.00
23671;DHT22;12012;51.998;7.614;2024-02-21T07:52:26;9.10;1.00
23671;DHT22;12012;51.998;7.614;2024-02-21T07:54:51;9.20;1.00
23671;DHT22;12012;51.998;7.614;2024-02-21T07:57:17;9.20;1.00
23671;DHT22;12012;51.998;7.614;2024-02-21T07:59:42;9.30;1.00
23671;DHT22;12012;51.998;7.614;2024-02-21T08:02:08;9.30;1.00
23671;DHT22;12012;51.998;7.614;2024-02-21T08:04:34;9.40;1.00
23671;DHT22;12012;51.998;7.614;2024-02-21T08:06:59;9.40;1.00
23671;DHT22;12012;51.998;7.614;2024-02-21T08:09:29;9.50;99.90
23671;DHT22;12012;51.998;7.614;2024-02-21T08:11:55;9.60;1.00
23671;DHT22;12012;51.998;7.614;2024-02-21T08:14:21;9.60;1.00
23671;DHT22;12012;51.998;7.614;2024-02-21T08:16:47;9.70;99.90
23671;DHT22;12012;51.998;7.614;2024-02-21T08:19:13;9.70;99.90
23671;DHT22;12012;51.998;7.614;2024-02-21T08:21:38;9.70;99.90
23671;DHT22;12012;51.998;7.614;2024-02-21T08:24:04;9.80;99.90
23671;DHT22;12012;51.998;7.614;2024-02-21T08:26:29;9.80;99.90
23671;DHT22;12012;51.998;7.614;2024-02-21T08:28:56;9.80;99.90
23671;DHT22;12012;51.998;7.614;2024-02-21T08:31:25;9.90;99.90
23671;DHT22;12012;51.998;7.614;2024-02-21T08:33:59;9.90;99.90
23671;DHT22;12012;51.998;7.614;2024-02-21T08:36:28;9.90;99.90
23671;DHT22;12012;51.998;7.614;2024-02-21T08:38:55;9.90;99.90
23671;DHT22;12012;51.998;7.614;2024-02-21T08:41:20;10.00;51.50
23671;DHT22;12012;51.998;7.614;2024-02-21T08:43:49;10.10;46.40
23671;DHT22;12012;51.998;7.614;2024-02-21T08:46:14;10.10;43.20
23671;DHT22;12012;51.998;7.614;2024-02-21T08:48:40;10.20;53.10
23671;DHT22;12012;51.998;7.614;2024-02-21T08:51:06;10.30;14.60
23671;DHT22;12012;51.998;7.614;2024-02-21T08:53:31;10.20;1.00
23671;DHT22;12012;51.998;7.614;2024-02-21T08:55:57;10.30;1.00
23671;DHT22;12012;51.998;7.614;2024-02-21T08:58:22;10.40;1.00
23671;DHT22;12012;51.998;7.614;2024-02-21T09:00:49;10.40;1.00
23671;DHT22;12012;51.998;7.614;2024-02-21T09:03:16;10.40;1.00
23671;DHT22;12012;51.998;7.614;2024-02-21T09:05:43;10.50;1.00
23671;DHT22;12012;51.998;7.614;2024-02-21T09:08:08;10.50;1.00
23671;DHT22;12012;51.998;7.614;2024-02-21T09:10:34;10.50;1.00
23671;DHT22;12012;51.998;7.614;2024-02-21T09:13:00;10.60;1.00
23671;DHT22;12012;51.998;7.614;2024-02-21T09:15:25;10.60;1.00
23671;DHT22;12012;51.998;7.614;2024-02-21T09:17:52;10.60;1.00
23671;DHT22;12012;51.998;7.614;2024-02-21T09:20:17;10.60;1.00
23671;DHT22;12012;51.998;7.614;2024-02-21T09:22:43;10.70;1.00
23671;DHT22;12012;51.998;7.614;2024-02-21T09:25:09;10.70;1.00
23671;DHT22;12012;51.998;7.614;2024-02-21T09:27:37;10.70;99.90
23671;DHT22;12012;51.998;7.614;2024-02-21T09:30:04;10.70;1.00
23671;DHT22;12012;51.998;7.614;2024-02-21T09:32:30;10.70;99.90
23671;DHT22;12012;51.998;7.614;2024-02-21T09:34:56;10.70;1.00
23671;DHT22;12012;51.998;7.614;2024-02-21T09:37:21;10.70;99.90
23671;DHT22;12012;51.998;7.614;2024-02-21T09:39:47;10.70;99.90
23671;DHT22;12012;51.998;7.614;2024-02-21T09:42:14;10.70;99.90
23671;DHT22;12012;51.998;7.614;2024-02-21T09:44:45;10.80;99.90
23671;DHT22;12012;51.998;7.614;2024-02-21T09:47:19;10.80;99.90
23671;DHT22;12012;51.998;7.614;2024-02-21T09:49:47;10.80;99.90
23671;DHT22;12012;51.998;7.614;2024-02-21T09:52:14;10.80;99.90
23671;DHT22;12012;51.998;7.614;2024-02-21T09:54:41;10.90;99.90
23671;DHT22;12012;51.998;7.614;2024-02-21T09:57:10;10.80;99.90
23671;DHT22;12012;51.998;7.614;2024-02-21T09:59:37;10.90;99.90
23671;DHT22;12012;51.998;7.614;2024-02-21T10:02:03;10.90;99.90
23671;DHT22;12012;51.998;7.614;2024-02-21T10:04:30;10.80;99.90
23671;DHT22;12012;51.998;7.614;2024-02-21T10:06:56;10.90;99.90
23671;DHT22;12012;51.998;7.614;2024-02-21T10:09:26;10.80;99.90
23671;DHT22;12012;51.998;7.614;2024-02-21T10:12:15;10.90;99.90
23671;DHT22;12012;51.998;7.614;2024-02-21T10:14:44;10.90;99.90
23671;DHT22;12012;51.998;7.614;2024-02-21T10:17:18;10.90;99.90
23671;DHT22;12012;51.998;7.614;2024-02-21T10:19:45;11.00;99.90
23671;DHT22;12012;51.998;7.614;2024-02-21T10:22:12;11.00;99.90
23671;DHT22;12012;51.998;7.614;2024-02-21T10:24:40;11.10;99.90
23671;DHT22;12012;51.998;7.614;2024-02-21T10:27:09;11.20;99.90
23671;DHT22;12012;51.998;7.614;2024-02-21T10:29:39;11.30;99.90
23671;DHT22;12012;51.998;7.614;2024-02-21T10:32:12;11.40;99.90
23671;DHT22;12012;51.998;7.614;2024-02-21T10:34:40;11.50;99.90
23671;DHT22;12012;51.998;7.614;2024-02-21T10:37:08;11.50;99.90
23671;DHT22;12012;51.998;7.614;2024-02-21T10:39:35;11.50;99.90
23671;DHT22;12012;51.998;7.614;2024-02-21T10:42:02;11.50;99.90
23671;DHT22;12012;51.998;7.614;2024-02-21T10:44:29;11.60;99.90
23671;DHT22;12012;51.998;7.614;2024-02-21T10:46:58;11.50;99.90
23671;DHT22;12012;51.998;7.614;2024-02-21T10:49:25;11.50;99.90
23671;DHT22;12012;51.998;7.614;2024-02-21T10:51:55;11.60;99.90
23671;DHT22;12012;51.998;7.614;2024-02-21T10:54:44;11.60;99.90
23671;DHT22;12012;51.998;7.614;2024-02-21T10:57:12;11.60;99.90
23671;DHT22;12012;51.998;7.614;2024-02-21T10:59:39;11.60;99.90
23671;DHT22;12012;51.998;7.614;2024-02-21T11:02:05;11.70;99.90
23671;DHT22;12012;51.998;7.614;2024-02-21T11:04:32;11.70;99.90
23671;DHT22;12012;51.998;7.614;2024-02-21T11:07:02;11.70;99.90
23671;DHT22;12012;51.998;7.614;2024-02-21T11:09:33;11.70;99.90
23671;DHT22;12012;51.998;7.614;2024-02-21T11:12:01;11.60;99.90
23671;DHT22;12012;51.998;7.614;2024-02-21T11:14:29;11.70;99.90
23671;DHT22;12012;51.998;7.614;2024-02-21T11:16:58;11.70;99.90
23671;DHT22;12012;51.998;7.614;2024-02-21T11:19:27;11.60;99.90
23671;DHT22;12012;51.998;7.614;2024-02-21T11:21:54;11.60;99.90
23671;DHT22;12012;51.998;7.614;2024-02-21T11:24:33;11.50;99.90
23671;DHT22;12012;51.998;7.614;2024-02-21T11:29:46;11.40;99.90
23671;DHT22;12012;51.998;7.614;2024-02-21T11:32:15;11.30;99.90
23671;DHT22;12012;51.998;7.614;2024-02-21T11:34:41;11.30;99.90
23671;DHT22;12012;51.998;7.614;2024-02-21T11:37:13;11.20;99.90
23671;DHT22;12012;51.998;7.614;2024-02-21T11:39:42;11.10;99.90
23671;DHT22;12012;51.998;7.614;2024-02-21T11:42:08;11.10;99.90
23671;DHT22;12012;51.998;7.614;2024-02-21T11:44:35;11.10;99.90
23671;DHT22;12012;51.998;7.614;2024-02-21T11:47:03;11.10;99.90
23671;DHT22;12012;51.998;7.614;2024-02-21T11:49:29;11.10;99.90
23671;DHT22;12012;51.998;7.614;2024-02-21T11:52:02;11.00;99.90
23671;DHT22;12012;51.998;7.614;2024-02-21T11:54:31;11.00;99.90
23671;DHT22;12012;51.998;7.614;2024-02-21T11:56:57;11.00;99.90
23671;DHT22;12012;51.998;7.614;2024-02-21T11:59:23;11.00;99.90
23671;DHT22;12012;51.998;7.614;2024-02-21T12:01:49;11.10;99.90
23671;DHT22;12012;51.998;7.614;2024-02-21T12:04:15;11.10;99.90
23671;DHT22;12012;51.998;7.614;2024-02-21T12:06:43;11.00;99.90
23671;DHT22;12012;51.998;7.614;2024-02-21T12:09:09;11.00;99.90
23671;DHT22;12012;51.998;7.614;2024-02-21T12:11:35;11.00;99.90
23671;DHT22;12012;51.998;7.614;2024-02-21T12:14:04;11.00;99.90
23671;DHT22;12012;51.998;7.614;2024-02-21T12:16:33;10.90;99.90
23671;DHT22;12012;51.998;7.614;2024-02-21T12:19:00;10.90;99.90
23671;DHT22;12012;51.998;7.614;2024-02-21T12:21:35;10.90;99.90
23671;DHT22;12012;51.998;7.614;2024-02-21T12:24:36;10.80;99.90
23671;DHT22;12012;51.998;7.614;2024-02-21T12:27:03;10.80;99.90
23671;DHT22;12012;51.998;7.614;2024-02-21T12:29:29;10.80;99.90
23671;DHT22;12012;51.998;7.614;2024-02-21T12:31:55;10.80;99.90
23671;DHT22;12012;51.998;7.614;2024-02-21T12:34:21;10.80;99.90
23671;DHT22;12012;51.998;7.614;2024-02-21T12:36:48;10.80;99.90
23671;DHT22;12012;51.998;7.614;2024-02-21T12:39:13;10.90;99.90
23671;DHT22;12012;51.998;7.614;2024-02-21T12:41:40;10.90;99.90
23671;DHT22;12012;51.998;7.614;2024-02-21T12:44:10;11.00;99.90
23671;DHT22;12012;51.998;7.614;2024-02-21T12:46:37;11.00;99.90
23671;DHT22;12012;51.998;7.614;2024-02-21T12:49:03;11.10;99.90
23671;DHT22;12012;51.998;7.614;2024-02-21T12:51:32;11.10;99.90
23671;DHT22;12012;51.998;7.614;2024-02-21T12:53:57;11.20;99.90
23671;DHT22;12012;51.998;7.614;2024-02-21T12:56:24;11.20;99.90
23671;DHT22;12012;51.998;7.614;2024-02-21T12:58:52;11.30;99.90
23671;DHT22;12012;51.998;7.614;2024-02-21T13:01:17;11.30;99.90
23671;DHT22;12012;51.998;7.614;2024-02-21T13:03:43;11.40;99.90
23671;DHT22;12012;51.998;7.614;2024-02-21T13:06:09;11.40;99.90
23671;DHT22;12012;51.998;7.614;2024-02-21T13:08:37;11.50;99.90
23671;DHT22;12012;51.998;7.614;2024-02-21T13:11:03;11.50;99.90
23671;DHT22;12012;51.998;7.614;2024-02-21T13:13:29;11.60;99.90
23671;DHT22;12012;51.998;7.614;2024-02-21T13:15:56;11.60;99.90
23671;DHT22;12012;51.998;7.614;2024-02-21T13:18:22;11.60;99.90
23671;DHT22;12012;51.998;7.614;2024-02-21T13:20:47;11.60;99.90
23671;DHT22;12012;51.998;7.614;2024-02-21T13:23:13;11.60;99.90
23671;DHT22;12012;51.998;7.614;2024-02-21T13:25:38;11.60;99.90
23671;DHT22;12012;51.998;7.614;2024-02-21T13:28:04;11.60;99.90
23671;DHT22;12012;51.998;7.614;2024-02-21T13:30:30;11.60;99.90
23671;DHT22;12012;51.998;7.614;2024-02-21T13:32:56;11.70;99.90
23671;DHT22;12012;51.998;7.614;2024-02-21T13:35:21;11.70;99.90
23671;DHT22;12012;51.998;7.614;2024-02-21T13:37:47;11.70;99.90
23671;DHT22;12012;51.998;7.614;2024-02-21T13:40:12;11.70;99.90
23671;DHT22;12012;51.998;7.614;2024-02-21T13:42:39;11.70;99.90
23671;DHT22;12012;51.998;7.614;2024-02-21T13:45:06;11.70;99.90
23671;DHT22;12012;51.998;7.614;2024-02-21T13:47:33;11.80;99.90
23671;DHT22;12012;51.998;7.614;2024-02-21T13:49:58;11.80;99.90
23671;DHT22;12012;51.998;7.614;2024-02-21T13:52:24;11.90;99.90
23671;DHT22;12012;51.998;7.614;2024-02-21T13:54:53;12.00;99.90
23671;DHT22;12012;51.998;7.614;2024-02-21T13:57:18;12.00;99.90
23671;DHT22;12012;51.998;7.614;2024-02-21T13:59:44;12.00;99.90
23671;DHT22;12012;51.998;7.614;2024-02-21T14:02:09;12.00;99.90
23671;DHT22;12012;51.998;7.614;2024-02-21T14:04:35;11.90;99.90
23671;DHT22;12012;51.998;7.614;2024-02-21T14:07:01;12.00;99.90
23671;DHT22;12012;51.998;7.614;2024-02-21T14:09:27;12.00;99.90
23671;DHT22;12012;51.998;7.614;2024-02-21T14:11:55;12.00;99.90
23671;DHT22;12012;51.998;7.614;2024-02-21T14:14:20;11.90;99.90
23671;DHT22;12012;51.998;7.614;2024-02-21T14:16:46;11.80;99.90
23671;DHT22;12012;51.998;7.614;2024-02-21T14:19:13;11.80;99.90
23671;DHT22;12012;51.998;7.614;2024-02-21T14:21:39;11.80;99.90
23671;DHT22;12012;51.998;7.614;2024-02-21T14:24:05;11.70;99.90
23671;DHT22;12012;51.998;7.614;2024-02-21T14:26:31;11.60;99.90
23671;DHT22;12012;51.998;7.614;2024-02-21T14:28:57;11.60;99.90
23671;DHT22;12012;51.998;7.614;2024-02-21T14:31:23;11.50;99.90
23671;DHT22;12012;51.998;7.614;2024-02-21T14:33:49;11.50;99.90
23671;DHT22;12012;51.998;7.614;2024-02-21T14:36:15;11.50;99.90
23671;DHT22;12012;51.998;7.614;2024-02-21T14:38:41;11.50;99.90
23671;DHT22;12012;51.998;7.614;2024-02-21T14:41:08;11.50;99.90
23671;DHT22;12012;51.998;7.614;2024-02-21T14:43:34;11.50;99.90
23671;DHT22;12012;51.998;7.614;2024-02-21T14:46:00;11.50;99.90
23671;DHT22;12012;51.998;7.614;2024-02-21T14:48:29;11.50;99.90
23671;DHT22;12012;51.998;7.614;2024-02-21T14:50:55;11.50;99.90
23671;DHT22;12012;51.998;7.614;2024-02-21T14:53:20;11.40;99.90
23671;DHT22;12012;51.998;7.614;2024-02-21T14:55:46;11.40;99.90
23671;DHT22;12012;51.998;7.614;2024-02-21T14:58:11;11.40;99.90
23671;DHT22;12012;51.998;7.614;2024-02-21T15:00:37;11.40;99.90
23671;DHT22;12012;51.998;7.614;2024-02-21T15:03:04;11.40;99.90
23671;DHT22;12012;51.998;7.614;2024-02-21T15:05:29;11.40;99.90
23671;DHT22;12012;51.998;7.614;2024-02-21T15:07:56;11.40;99.90
23671;DHT22;12012;51.998;7.614;2024-02-21T15:10:23;11.40;99.90
23671;DHT22;12012;51.998;7.614;2024-02-21T15:12:49;11.30;99.90
23671;DHT22;12012;51.998;7.614;2024-02-21T15:15:15;11.30;99.90
23671;DHT22;12012;51.998;7.614;2024-02-21T15:17:42;11.30;99.90
23671;DHT22;12012;51.998;7.614;2024-02-21T15:20:08;11.30;99.90
23671;DHT22;12012;51.998;7.614;2024-02-21T15:22:34;11.30;99.90
23671;DHT22;12012;51.998;7.614;2024-02-21T15:25:01;11.20;99.90
23671;DHT22;12012;51.998;7.614;2024-02-21T15:27:26;11.20;99.90
23671;DHT22;12012;51.998;7.614;2024-02-21T15:29:53;11.20;99.90
23671;DHT22;12012;51.998;7.614;2024-02-21T15:32:19;11.10;99.90
23671;DHT22;12012;51.998;7.614;2024-02-21T15:34:45;11.10;99.90
23671;DHT22;12012;51.998;7.614;2024-02-21T15:37:11;11.10;99.90
23671;DHT22;12012;51.998;7.614;2024-02-21T15:39:40;11.10;99.90
23671;DHT22;12012;51.998;7.614;2024-02-21T15:42:06;11.00;99.90